Kirkland, Arizona
Current Conditions -  °F | °C
As of 6:53 AM on Thursday 18 Dec 2014 (Local Time) from KPRC Reporting Station
Overcast Overcast  
Wind Chill: 33°   Ceiling: 7500
Heat Index: 33°   Visibility: 10mi
Dew Point: 30°   Wind: 3mph
Humidity: 89%   Direction: 310°NW
Pressure: 30.11"   Gusts: NA
Location:  34.42°N, 112.71°W
Report Text: KPRC 181353Z 31003KT 10SM OVC075 01/M01 A3011 RMK AO2 SLP186 T00061011
Loading
Personal Weather Stations






























Interactive Weather Map New forecast layout! Learn more

10-Day Weather Forecast

Advertisements
Track Severe Weather on mobile